sensor_id;sensor_type;location;lat;lon;timestamp;P1;durP1;ratioP1;P2;durP2;ratioP2
1955;SDS011;978;48.314;11.562;2022-11-20T00:00:15;8.67;;;4.80;;
1955;SDS011;978;48.314;11.562;2022-11-20T00:02:42;7.90;;;3.63;;
1955;SDS011;978;48.314;11.562;2022-11-20T00:05:09;8.07;;;4.20;;
1955;SDS011;978;48.314;11.562;2022-11-20T00:07:36;8.70;;;3.93;;
1955;SDS011;978;48.314;11.562;2022-11-20T00:10:03;6.87;;;3.13;;
1955;SDS011;978;48.314;11.562;2022-11-20T00:12:30;8.30;;;5.67;;
1955;SDS011;978;48.314;11.562;2022-11-20T00:14:58;9.70;;;4.93;;
1955;SDS011;978;48.314;11.562;2022-11-20T00:17:25;7.80;;;3.90;;
1955;SDS011;978;48.314;11.562;2022-11-20T00:19:52;9.03;;;5.17;;
1955;SDS011;978;48.314;11.562;2022-11-20T00:22:18;7.40;;;3.97;;
1955;SDS011;978;48.314;11.562;2022-11-20T00:24:45;7.17;;;2.43;;
1955;SDS011;978;48.314;11.562;2022-11-20T00:27:12;8.43;;;4.80;;
1955;SDS011;978;48.314;11.562;2022-11-20T00:29:38;8.40;;;3.90;;
1955;SDS011;978;48.314;11.562;2022-11-20T00:32:06;7.00;;;3.93;;
1955;SDS011;978;48.314;11.562;2022-11-20T00:34:33;14.23;;;5.17;;
1955;SDS011;978;48.314;11.562;2022-11-20T00:37:00;9.20;;;3.83;;
1955;SDS011;978;48.314;11.562;2022-11-20T00:39:26;6.67;;;3.40;;
1955;SDS011;978;48.314;11.562;2022-11-20T00:41:53;7.00;;;3.33;;
1955;SDS011;978;48.314;11.562;2022-11-20T00:44:20;6.67;;;3.30;;
1955;SDS011;978;48.314;11.562;2022-11-20T00:46:46;7.80;;;3.73;;
1955;SDS011;978;48.314;11.562;2022-11-20T00:49:14;8.20;;;4.10;;
1955;SDS011;978;48.314;11.562;2022-11-20T00:51:41;10.83;;;4.43;;
1955;SDS011;978;48.314;11.562;2022-11-20T00:54:08;11.67;;;6.87;;
1955;SDS011;978;48.314;11.562;2022-11-20T00:56:35;8.23;;;3.40;;
1955;SDS011;978;48.314;11.562;2022-11-20T00:59:01;8.43;;;3.90;;
1955;SDS011;978;48.314;11.562;2022-11-20T01:01:28;13.60;;;4.87;;
1955;SDS011;978;48.314;11.562;2022-11-20T01:03:56;7.77;;;3.40;;
1955;SDS011;978;48.314;11.562;2022-11-20T01:06:25;7.50;;;3.63;;
1955;SDS011;978;48.314;11.562;2022-11-20T01:08:54;11.73;;;4.10;;
1955;SDS011;978;48.314;11.562;2022-11-20T01:11:22;7.20;;;4.23;;
1955;SDS011;978;48.314;11.562;2022-11-20T01:13:50;7.73;;;2.50;;
1955;SDS011;978;48.314;11.562;2022-11-20T01:16:20;7.10;;;3.40;;
1955;SDS011;978;48.314;11.562;2022-11-20T01:18:48;10.73;;;4.30;;
1955;SDS011;978;48.314;11.562;2022-11-20T01:21:17;8.30;;;5.23;;
1955;SDS011;978;48.314;11.562;2022-11-20T01:23:46;8.57;;;3.60;;
1955;SDS011;978;48.314;11.562;2022-11-20T01:26:15;8.20;;;4.13;;
1955;SDS011;978;48.314;11.562;2022-11-20T01:28:43;8.50;;;4.40;;
1955;SDS011;978;48.314;11.562;2022-11-20T01:31:10;7.33;;;4.60;;
1955;SDS011;978;48.314;11.562;2022-11-20T01:33:38;10.13;;;4.70;;
1955;SDS011;978;48.314;11.562;2022-11-20T01:36:06;7.50;;;3.90;;
1955;SDS011;978;48.314;11.562;2022-11-20T01:38:34;7.07;;;3.20;;
1955;SDS011;978;48.314;11.562;2022-11-20T01:41:02;10.17;;;4.90;;
1955;SDS011;978;48.314;11.562;2022-11-20T01:43:30;9.30;;;4.10;;
1955;SDS011;978;48.314;11.562;2022-11-20T01:46:08;13.23;;;5.57;;
1955;SDS011;978;48.314;11.562;2022-11-20T01:48:42;9.77;;;6.43;;
1955;SDS011;978;48.314;11.562;2022-11-20T01:51:16;7.37;;;3.60;;
1955;SDS011;978;48.314;11.562;2022-11-20T01:53:46;10.07;;;5.77;;
1955;SDS011;978;48.314;11.562;2022-11-20T01:56:15;8.67;;;3.77;;
1955;SDS011;978;48.314;11.562;2022-11-20T01:58:43;9.63;;;5.30;;
1955;SDS011;978;48.314;11.562;2022-11-20T02:01:15;6.73;;;3.43;;
1955;SDS011;978;48.314;11.562;2022-11-20T02:03:42;10.83;;;4.43;;
1955;SDS011;978;48.314;11.562;2022-11-20T02:06:12;8.03;;;4.03;;
1955;SDS011;978;48.314;11.562;2022-11-20T02:08:44;8.83;;;5.33;;
1955;SDS011;978;48.314;11.562;2022-11-20T02:11:10;7.00;;;3.20;;
1955;SDS011;978;48.314;11.562;2022-11-20T02:13:40;8.73;;;2.97;;
1955;SDS011;978;48.314;11.562;2022-11-20T02:16:10;6.93;;;3.03;;
1955;SDS011;978;48.314;11.562;2022-11-20T02:18:40;11.70;;;5.43;;
1955;SDS011;978;48.314;11.562;2022-11-20T02:21:09;6.97;;;3.40;;
1955;SDS011;978;48.314;11.562;2022-11-20T02:23:53;7.37;;;2.60;;
1955;SDS011;978;48.314;11.562;2022-11-20T02:26:24;8.40;;;4.90;;
1955;SDS011;978;48.314;11.562;2022-11-20T02:28:53;12.90;;;4.23;;
1955;SDS011;978;48.314;11.562;2022-11-20T02:31:20;7.93;;;4.13;;
1955;SDS011;978;48.314;11.562;2022-11-20T02:33:47;6.70;;;2.83;;
1955;SDS011;978;48.314;11.562;2022-11-20T02:36:19;7.53;;;4.37;;
1955;SDS011;978;48.314;11.562;2022-11-20T02:38:46;7.30;;;2.90;;
1955;SDS011;978;48.314;11.562;2022-11-20T02:41:15;8.80;;;4.50;;
1955;SDS011;978;48.314;11.562;2022-11-20T02:43:42;11.80;;;5.20;;
1955;SDS011;978;48.314;11.562;2022-11-20T02:46:09;7.60;;;3.70;;
1955;SDS011;978;48.314;11.562;2022-11-20T02:48:35;11.20;;;5.67;;
1955;SDS011;978;48.314;11.562;2022-11-20T02:51:02;7.47;;;3.30;;
1955;SDS011;978;48.314;11.562;2022-11-20T02:53:29;6.40;;;3.80;;
1955;SDS011;978;48.314;11.562;2022-11-20T02:55:56;12.53;;;4.50;;
1955;SDS011;978;48.314;11.562;2022-11-20T02:58:24;6.87;;;3.33;;
1955;SDS011;978;48.314;11.562;2022-11-20T03:00:51;6.60;;;2.90;;
1955;SDS011;978;48.314;11.562;2022-11-20T03:03:18;9.60;;;3.60;;
1955;SDS011;978;48.314;11.562;2022-11-20T03:05:45;7.30;;;3.57;;
1955;SDS011;978;48.314;11.562;2022-11-20T03:08:11;9.80;;;4.53;;
1955;SDS011;978;48.314;11.562;2022-11-20T03:10:38;6.70;;;3.67;;
1955;SDS011;978;48.314;11.562;2022-11-20T03:13:05;11.07;;;3.00;;
1955;SDS011;978;48.314;11.562;2022-11-20T03:15:33;8.17;;;3.57;;
1955;SDS011;978;48.314;11.562;2022-11-20T03:18:01;7.00;;;3.33;;
1955;SDS011;978;48.314;11.562;2022-11-20T03:20:28;6.97;;;2.80;;
1955;SDS011;978;48.314;11.562;2022-11-20T03:22:55;11.10;;;4.90;;
1955;SDS011;978;48.314;11.562;2022-11-20T03:25:22;7.53;;;3.87;;
1955;SDS011;978;48.314;11.562;2022-11-20T03:27:48;11.33;;;6.03;;
1955;SDS011;978;48.314;11.562;2022-11-20T03:30:15;6.80;;;3.03;;
1955;SDS011;978;48.314;11.562;2022-11-20T03:32:43;6.57;;;3.43;;
1955;SDS011;978;48.314;11.562;2022-11-20T03:35:10;8.53;;;4.20;;
1955;SDS011;978;48.314;11.562;2022-11-20T03:37:37;6.90;;;3.67;;
1955;SDS011;978;48.314;11.562;2022-11-20T03:40:04;7.20;;;3.77;;
1955;SDS011;978;48.314;11.562;2022-11-20T03:42:32;6.70;;;3.33;;
1955;SDS011;978;48.314;11.562;2022-11-20T03:45:11;6.83;;;3.20;;
1955;SDS011;978;48.314;11.562;2022-11-20T03:47:38;10.70;;;4.10;;
1955;SDS011;978;48.314;11.562;2022-11-20T03:50:07;8.57;;;4.40;;
1955;SDS011;978;48.314;11.562;2022-11-20T03:52:34;7.47;;;4.10;;
1955;SDS011;978;48.314;11.562;2022-11-20T03:55:01;6.43;;;2.33;;
1955;SDS011;978;48.314;11.562;2022-11-20T03:57:28;7.00;;;3.00;;
1955;SDS011;978;48.314;11.562;2022-11-20T03:59:54;6.40;;;2.93;;
1955;SDS011;978;48.314;11.562;2022-11-20T04:02:21;7.90;;;3.70;;
1955;SDS011;978;48.314;11.562;2022-11-20T04:04:48;9.73;;;3.83;;
1955;SDS011;978;48.314;11.562;2022-11-20T04:07:16;11.37;;;3.50;;
1955;SDS011;978;48.314;11.562;2022-11-20T04:09:43;6.17;;;2.60;;
1955;SDS011;978;48.314;11.562;2022-11-20T04:12:09;9.00;;;4.60;;
1955;SDS011;978;48.314;11.562;2022-11-20T04:14:36;10.00;;;4.47;;
1955;SDS011;978;48.314;11.562;2022-11-20T04:17:03;7.80;;;4.97;;
1955;SDS011;978;48.314;11.562;2022-11-20T04:19:30;9.67;;;5.10;;
1955;SDS011;978;48.314;11.562;2022-11-20T04:21:57;6.67;;;3.17;;
1955;SDS011;978;48.314;11.562;2022-11-20T04:24:25;9.73;;;3.63;;
1955;SDS011;978;48.314;11.562;2022-11-20T04:26:52;7.10;;;2.70;;
1955;SDS011;978;48.314;11.562;2022-11-20T04:29:19;7.20;;;3.20;;
1955;SDS011;978;48.314;11.562;2022-11-20T04:31:46;7.60;;;3.10;;
1955;SDS011;978;48.314;11.562;2022-11-20T04:34:12;9.70;;;4.07;;
1955;SDS011;978;48.314;11.562;2022-11-20T04:36:39;8.30;;;4.17;;
1955;SDS011;978;48.314;11.562;2022-11-20T04:39:06;7.10;;;2.83;;
1955;SDS011;978;48.314;11.562;2022-11-20T04:41:34;7.20;;;2.90;;
1955;SDS011;978;48.314;11.562;2022-11-20T04:44:02;9.17;;;4.97;;
1955;SDS011;978;48.314;11.562;2022-11-20T04:46:31;10.63;;;4.73;;
1955;SDS011;978;48.314;11.562;2022-11-20T04:48:59;6.33;;;2.23;;
1955;SDS011;978;48.314;11.562;2022-11-20T04:51:26;7.30;;;3.97;;
1955;SDS011;978;48.314;11.562;2022-11-20T04:53:53;12.90;;;3.87;;
1955;SDS011;978;48.314;11.562;2022-11-20T04:56:20;7.03;;;3.57;;
1955;SDS011;978;48.314;11.562;2022-11-20T04:58:49;6.77;;;3.70;;
1955;SDS011;978;48.314;11.562;2022-11-20T05:01:16;7.30;;;4.00;;
1955;SDS011;978;48.314;11.562;2022-11-20T05:03:44;7.97;;;2.70;;
1955;SDS011;978;48.314;11.562;2022-11-20T05:06:12;10.70;;;5.40;;
1955;SDS011;978;48.314;11.562;2022-11-20T05:08:40;8.73;;;3.33;;
1955;SDS011;978;48.314;11.562;2022-11-20T05:11:08;10.27;;;4.07;;
1955;SDS011;978;48.314;11.562;2022-11-20T05:13:36;9.20;;;4.83;;
1955;SDS011;978;48.314;11.562;2022-11-20T05:16:05;7.47;;;3.83;;
1955;SDS011;978;48.314;11.562;2022-11-20T05:18:33;6.80;;;3.23;;
1955;SDS011;978;48.314;11.562;2022-11-20T05:21:01;8.00;;;4.00;;
1955;SDS011;978;48.314;11.562;2022-11-20T05:23:28;9.27;;;4.37;;
1955;SDS011;978;48.314;11.562;2022-11-20T05:25:56;9.77;;;4.03;;
1955;SDS011;978;48.314;11.562;2022-11-20T05:28:24;7.23;;;3.70;;
1955;SDS011;978;48.314;11.562;2022-11-20T05:30:51;8.10;;;4.10;;
1955;SDS011;978;48.314;11.562;2022-11-20T05:33:19;7.60;;;3.50;;
1955;SDS011;978;48.314;11.562;2022-11-20T05:35:46;5.80;;;2.50;;
1955;SDS011;978;48.314;11.562;2022-11-20T05:38:14;7.87;;;3.67;;
1955;SDS011;978;48.314;11.562;2022-11-20T05:40:40;6.70;;;3.70;;
1955;SDS011;978;48.314;11.562;2022-11-20T05:43:07;8.63;;;4.50;;
1955;SDS011;978;48.314;11.562;2022-11-20T05:45:34;6.93;;;3.37;;
1955;SDS011;978;48.314;11.562;2022-11-20T05:48:01;8.60;;;3.83;;
1955;SDS011;978;48.314;11.562;2022-11-20T05:50:29;7.60;;;4.03;;
1955;SDS011;978;48.314;11.562;2022-11-20T05:52:57;6.67;;;2.87;;
1955;SDS011;978;48.314;11.562;2022-11-20T05:55:25;8.43;;;3.83;;
1955;SDS011;978;48.314;11.562;2022-11-20T05:57:52;7.77;;;3.93;;
1955;SDS011;978;48.314;11.562;2022-11-20T06:00:19;8.80;;;4.93;;
1955;SDS011;978;48.314;11.562;2022-11-20T06:02:46;8.37;;;3.40;;
1955;SDS011;978;48.314;11.562;2022-11-20T06:05:13;7.10;;;3.20;;
1955;SDS011;978;48.314;11.562;2022-11-20T06:07:41;8.50;;;4.70;;
1955;SDS011;978;48.314;11.562;2022-11-20T06:10:08;6.60;;;3.27;;
1955;SDS011;978;48.314;11.562;2022-11-20T06:12:35;9.60;;;3.37;;
1955;SDS011;978;48.314;11.562;2022-11-20T06:15:02;9.00;;;4.13;;
1955;SDS011;978;48.314;11.562;2022-11-20T06:17:30;7.90;;;3.30;;
1955;SDS011;978;48.314;11.562;2022-11-20T06:19:56;9.13;;;2.90;;
1955;SDS011;978;48.314;11.562;2022-11-20T06:22:23;9.30;;;4.47;;
1955;SDS011;978;48.314;11.562;2022-11-20T06:24:51;9.17;;;4.87;;
1955;SDS011;978;48.314;11.562;2022-11-20T06:27:18;9.50;;;3.53;;
1955;SDS011;978;48.314;11.562;2022-11-20T06:29:45;8.50;;;3.43;;
1955;SDS011;978;48.314;11.562;2022-11-20T06:32:12;7.70;;;2.80;;
1955;SDS011;978;48.314;11.562;2022-11-20T06:34:38;6.17;;;2.33;;
1955;SDS011;978;48.314;11.562;2022-11-20T06:37:05;7.00;;;3.00;;
1955;SDS011;978;48.314;11.562;2022-11-20T06:39:32;7.93;;;3.50;;
1955;SDS011;978;48.314;11.562;2022-11-20T06:42:00;7.10;;;3.37;;
1955;SDS011;978;48.314;11.562;2022-11-20T06:44:26;6.33;;;2.80;;
1955;SDS011;978;48.314;11.562;2022-11-20T06:46:53;7.30;;;2.83;;
1955;SDS011;978;48.314;11.562;2022-11-20T06:49:20;7.13;;;2.47;;
1955;SDS011;978;48.314;11.562;2022-11-20T06:51:46;7.87;;;3.83;;
1955;SDS011;978;48.314;11.562;2022-11-20T06:54:13;6.87;;;2.77;;
1955;SDS011;978;48.314;11.562;2022-11-20T06:56:40;8.10;;;2.90;;
1955;SDS011;978;48.314;11.562;2022-11-20T06:59:08;7.50;;;2.93;;
1955;SDS011;978;48.314;11.562;2022-11-20T07:01:35;9.20;;;3.03;;
1955;SDS011;978;48.314;11.562;2022-11-20T07:04:01;8.30;;;2.83;;
1955;SDS011;978;48.314;11.562;2022-11-20T07:06:28;9.57;;;6.20;;
1955;SDS011;978;48.314;11.562;2022-11-20T07:08:55;8.03;;;3.03;;
1955;SDS011;978;48.314;11.562;2022-11-20T07:11:22;5.70;;;1.93;;
1955;SDS011;978;48.314;11.562;2022-11-20T07:13:49;10.30;;;4.00;;
1955;SDS011;978;48.314;11.562;2022-11-20T07:16:17;7.43;;;3.60;;
1955;SDS011;978;48.314;11.562;2022-11-20T07:18:44;7.33;;;3.13;;
1955;SDS011;978;48.314;11.562;2022-11-20T07:21:11;9.10;;;3.60;;
1955;SDS011;978;48.314;11.562;2022-11-20T07:23:37;10.43;;;5.43;;
1955;SDS011;978;48.314;11.562;2022-11-20T07:26:04;7.67;;;3.70;;
1955;SDS011;978;48.314;11.562;2022-11-20T07:28:32;7.23;;;3.87;;
1955;SDS011;978;48.314;11.562;2022-11-20T07:30:59;6.20;;;2.70;;
1955;SDS011;978;48.314;11.562;2022-11-20T07:33:27;7.30;;;3.77;;
1955;SDS011;978;48.314;11.562;2022-11-20T07:35:54;7.40;;;3.57;;
1955;SDS011;978;48.314;11.562;2022-11-20T07:38:21;10.07;;;2.93;;
1955;SDS011;978;48.314;11.562;2022-11-20T07:40:48;9.63;;;4.70;;
1955;SDS011;978;48.314;11.562;2022-11-20T07:43:14;6.40;;;3.10;;
1955;SDS011;978;48.314;11.562;2022-11-20T07:45:41;6.53;;;2.93;;
1955;SDS011;978;48.314;11.562;2022-11-20T07:48:08;6.83;;;3.03;;
1955;SDS011;978;48.314;11.562;2022-11-20T07:50:36;9.33;;;4.67;;
1955;SDS011;978;48.314;11.562;2022-11-20T07:53:03;7.87;;;3.13;;
1955;SDS011;978;48.314;11.562;2022-11-20T07:55:30;7.20;;;2.73;;
1955;SDS011;978;48.314;11.562;2022-11-20T07:57:57;8.50;;;3.53;;
1955;SDS011;978;48.314;11.562;2022-11-20T08:00:24;8.10;;;4.00;;
1955;SDS011;978;48.314;11.562;2022-11-20T08:02:51;6.17;;;2.97;;
1955;SDS011;978;48.314;11.562;2022-11-20T08:05:18;7.27;;;3.23;;
1955;SDS011;978;48.314;11.562;2022-11-20T08:07:46;6.37;;;3.10;;
1955;SDS011;978;48.314;11.562;2022-11-20T08:10:13;6.30;;;3.77;;
1955;SDS011;978;48.314;11.562;2022-11-20T08:12:44;8.23;;;4.20;;
1955;SDS011;978;48.314;11.562;2022-11-20T08:15:30;8.50;;;3.23;;
1955;SDS011;978;48.314;11.562;2022-11-20T08:18:00;7.67;;;3.53;;
1955;SDS011;978;48.314;11.562;2022-11-20T08:20:28;6.63;;;2.07;;
1955;SDS011;978;48.314;11.562;2022-11-20T08:22:59;6.90;;;3.00;;
1955;SDS011;978;48.314;11.562;2022-11-20T08:25:27;9.73;;;3.97;;
1955;SDS011;978;48.314;11.562;2022-11-20T08:27:56;6.47;;;2.57;;
1955;SDS011;978;48.314;11.562;2022-11-20T08:30:23;5.60;;;2.77;;
1955;SDS011;978;48.314;11.562;2022-11-20T08:32:50;7.17;;;2.90;;
1955;SDS011;978;48.314;11.562;2022-11-20T08:35:17;5.60;;;2.20;;
1955;SDS011;978;48.314;11.562;2022-11-20T08:37:45;8.00;;;3.50;;
1955;SDS011;978;48.314;11.562;2022-11-20T08:40:14;6.90;;;2.60;;
1955;SDS011;978;48.314;11.562;2022-11-20T08:42:45;6.47;;;3.37;;
1955;SDS011;978;48.314;11.562;2022-11-20T08:45:12;5.43;;;2.27;;
1955;SDS011;978;48.314;11.562;2022-11-20T08:47:39;6.67;;;3.23;;
1955;SDS011;978;48.314;11.562;2022-11-20T08:50:07;6.20;;;1.93;;
1955;SDS011;978;48.314;11.562;2022-11-20T08:52:34;6.53;;;3.50;;
1955;SDS011;978;48.314;11.562;2022-11-20T08:55:01;6.17;;;2.60;;
1955;SDS011;978;48.314;11.562;2022-11-20T08:57:30;5.63;;;3.00;;
1955;SDS011;978;48.314;11.562;2022-11-20T08:59:58;5.40;;;2.37;;
1955;SDS011;978;48.314;11.562;2022-11-20T09:02:24;8.83;;;2.57;;
1955;SDS011;978;48.314;11.562;2022-11-20T09:04:51;5.50;;;2.30;;
1955;SDS011;978;48.314;11.562;2022-11-20T09:07:18;5.73;;;3.00;;
1955;SDS011;978;48.314;11.562;2022-11-20T09:09:45;7.67;;;3.67;;
1955;SDS011;978;48.314;11.562;2022-11-20T09:12:12;4.73;;;1.67;;
1955;SDS011;978;48.314;11.562;2022-11-20T09:14:40;5.00;;;2.40;;
1955;SDS011;978;48.314;11.562;2022-11-20T09:17:07;4.80;;;1.97;;
1955;SDS011;978;48.314;11.562;2022-11-20T09:19:38;5.73;;;2.53;;
1955;SDS011;978;48.314;11.562;2022-11-20T09:22:05;5.33;;;1.90;;
1955;SDS011;978;48.314;11.562;2022-11-20T09:24:32;6.20;;;3.40;;
1955;SDS011;978;48.314;11.562;2022-11-20T09:27:01;5.17;;;1.70;;
1955;SDS011;978;48.314;11.562;2022-11-20T09:29:28;5.17;;;1.77;;
1955;SDS011;978;48.314;11.562;2022-11-20T09:31:56;7.43;;;3.60;;
1955;SDS011;978;48.314;11.562;2022-11-20T09:34:23;5.17;;;2.43;;
1955;SDS011;978;48.314;11.562;2022-11-20T09:36:50;6.47;;;2.07;;
1955;SDS011;978;48.314;11.562;2022-11-20T09:39:16;11.47;;;2.70;;
1955;SDS011;978;48.314;11.562;2022-11-20T09:41:51;6.83;;;2.30;;
1955;SDS011;978;48.314;11.562;2022-11-20T09:44:34;5.03;;;1.73;;
1955;SDS011;978;48.314;11.562;2022-11-20T09:47:12;5.37;;;1.60;;
1955;SDS011;978;48.314;11.562;2022-11-20T09:49:51;4.63;;;1.37;;
1955;SDS011;978;48.314;11.562;2022-11-20T09:52:28;6.00;;;2.43;;
1955;SDS011;978;48.314;11.562;2022-11-20T09:55:02;5.50;;;2.50;;
1955;SDS011;978;48.314;11.562;2022-11-20T09:57:36;4.37;;;0.90;;
1955;SDS011;978;48.314;11.562;2022-11-20T10:00:05;4.73;;;1.73;;
1955;SDS011;978;48.314;11.562;2022-11-20T10:02:37;7.40;;;3.43;;
1955;SDS011;978;48.314;11.562;2022-11-20T10:05:10;5.80;;;2.00;;
1955;SDS011;978;48.314;11.562;2022-11-20T10:07:42;4.73;;;2.10;;
1955;SDS011;978;48.314;11.562;2022-11-20T10:10:14;4.57;;;0.90;;
1955;SDS011;978;48.314;11.562;2022-11-20T10:12:47;5.23;;;1.63;;
1955;SDS011;978;48.314;11.562;2022-11-20T10:15:26;4.90;;;1.53;;
1955;SDS011;978;48.314;11.562;2022-11-20T10:18:05;4.87;;;2.13;;
1955;SDS011;978;48.314;11.562;2022-11-20T10:20:46;4.93;;;1.53;;
1955;SDS011;978;48.314;11.562;2022-11-20T10:23:21;5.97;;;2.43;;
1955;SDS011;978;48.314;11.562;2022-11-20T10:26:16;6.40;;;2.60;;
1955;SDS011;978;48.314;11.562;2022-11-20T10:28:50;5.27;;;1.63;;
1955;SDS011;978;48.314;11.562;2022-11-20T10:31:33;5.70;;;1.60;;
1955;SDS011;978;48.314;11.562;2022-11-20T10:34:05;5.10;;;2.40;;
1955;SDS011;978;48.314;11.562;2022-11-20T10:36:34;6.50;;;1.90;;
1955;SDS011;978;48.314;11.562;2022-11-20T10:39:15;5.03;;;1.77;;
1955;SDS011;978;48.314;11.562;2022-11-20T10:41:49;4.50;;;1.63;;
1955;SDS011;978;48.314;11.562;2022-11-20T10:44:20;5.33;;;1.80;;
1955;SDS011;978;48.314;11.562;2022-11-20T10:47:01;4.40;;;1.10;;
1955;SDS011;978;48.314;11.562;2022-11-20T10:49:31;5.13;;;2.03;;
1955;SDS011;978;48.314;11.562;2022-11-20T10:52:02;4.90;;;1.70;;
1955;SDS011;978;48.314;11.562;2022-11-20T10:54:36;4.30;;;0.90;;
1955;SDS011;978;48.314;11.562;2022-11-20T10:57:12;5.23;;;1.67;;
1955;SDS011;978;48.314;11.562;2022-11-20T10:59:52;6.53;;;2.60;;
1955;SDS011;978;48.314;11.562;2022-11-20T11:02:31;5.53;;;2.00;;
1955;SDS011;978;48.314;11.562;2022-11-20T11:05:04;4.60;;;1.17;;
1955;SDS011;978;48.314;11.562;2022-11-20T11:07:44;5.27;;;1.53;;
1955;SDS011;978;48.314;11.562;2022-11-20T11:10:14;6.03;;;2.80;;
1955;SDS011;978;48.314;11.562;2022-11-20T11:12:44;5.90;;;2.60;;
1955;SDS011;978;48.314;11.562;2022-11-20T11:15:13;5.43;;;1.73;;
1955;SDS011;978;48.314;11.562;2022-11-20T11:17:50;5.60;;;1.70;;
1955;SDS011;978;48.314;11.562;2022-11-20T11:20:18;6.33;;;2.33;;
1955;SDS011;978;48.314;11.562;2022-11-20T11:22:47;8.53;;;2.63;;
1955;SDS011;978;48.314;11.562;2022-11-20T11:25:20;7.33;;;2.50;;
1955;SDS011;978;48.314;11.562;2022-11-20T11:27:50;4.90;;;1.23;;
1955;SDS011;978;48.314;11.562;2022-11-20T11:30:18;4.63;;;1.03;;
1955;SDS011;978;48.314;11.562;2022-11-20T11:32:46;6.80;;;2.30;;
1955;SDS011;978;48.314;11.562;2022-11-20T11:35:21;7.53;;;2.60;;
1955;SDS011;978;48.314;11.562;2022-11-20T11:37:50;5.47;;;1.47;;
1955;SDS011;978;48.314;11.562;2022-11-20T11:40:19;5.00;;;1.47;;
1955;SDS011;978;48.314;11.562;2022-11-20T11:42:50;7.17;;;2.77;;
1955;SDS011;978;48.314;11.562;2022-11-20T11:45:19;6.83;;;3.03;;
1955;SDS011;978;48.314;11.562;2022-11-20T11:47:46;6.50;;;2.30;;
1955;SDS011;978;48.314;11.562;2022-11-20T11:50:14;5.90;;;2.40;;
1955;SDS011;978;48.314;11.562;2022-11-20T11:52:45;5.60;;;2.10;;
1955;SDS011;978;48.314;11.562;2022-11-20T11:55:19;5.00;;;1.67;;
1955;SDS011;978;48.314;11.562;2022-11-20T11:57:54;5.00;;;1.87;;
1955;SDS011;978;48.314;11.562;2022-11-20T12:00:31;5.70;;;1.70;;
1955;SDS011;978;48.314;11.562;2022-11-20T12:03:03;7.77;;;2.03;;
1955;SDS011;978;48.314;11.562;2022-11-20T12:05:36;4.80;;;1.13;;
1955;SDS011;978;48.314;11.562;2022-11-20T12:08:12;5.10;;;2.27;;
1955;SDS011;978;48.314;11.562;2022-11-20T12:10:44;5.10;;;1.60;;
1955;SDS011;978;48.314;11.562;2022-11-20T12:13:17;5.53;;;2.33;;
1955;SDS011;978;48.314;11.562;2022-11-20T12:15:51;5.33;;;1.93;;
1955;SDS011;978;48.314;11.562;2022-11-20T12:18:19;5.70;;;1.63;;
1955;SDS011;978;48.314;11.562;2022-11-20T12:20:50;5.83;;;1.87;;
1955;SDS011;978;48.314;11.562;2022-11-20T12:23:26;4.73;;;1.23;;
1955;SDS011;978;48.314;11.562;2022-11-20T12:26:00;4.90;;;0.93;;
1955;SDS011;978;48.314;11.562;2022-11-20T12:28:37;4.90;;;0.97;;
1955;SDS011;978;48.314;11.562;2022-11-20T12:31:14;5.10;;;1.63;;
1955;SDS011;978;48.314;11.562;2022-11-20T12:33:55;7.60;;;2.73;;
1955;SDS011;978;48.314;11.562;2022-11-20T12:36:33;5.13;;;1.20;;
1955;SDS011;978;48.314;11.562;2022-11-20T12:39:19;6.03;;;1.60;;
1955;SDS011;978;48.314;11.562;2022-11-20T12:42:12;5.73;;;1.73;;
1955;SDS011;978;48.314;11.562;2022-11-20T12:45:21;6.30;;;2.00;;
1955;SDS011;978;48.314;11.562;2022-11-20T12:48:04;5.27;;;0.93;;
1955;SDS011;978;48.314;11.562;2022-11-20T12:50:46;5.20;;;1.23;;
1955;SDS011;978;48.314;11.562;2022-11-20T12:53:22;6.50;;;2.00;;
1955;SDS011;978;48.314;11.562;2022-11-20T12:56:00;4.57;;;0.67;;
1955;SDS011;978;48.314;11.562;2022-11-20T12:58:39;5.10;;;1.30;;
1955;SDS011;978;48.314;11.562;2022-11-20T13:01:19;4.80;;;1.27;;
1955;SDS011;978;48.314;11.562;2022-11-20T13:04:08;5.00;;;1.30;;
1955;SDS011;978;48.314;11.562;2022-11-20T13:06:44;4.60;;;0.60;;
1955;SDS011;978;48.314;11.562;2022-11-20T13:09:12;5.00;;;1.20;;
1955;SDS011;978;48.314;11.562;2022-11-20T13:11:42;6.43;;;1.50;;
1955;SDS011;978;48.314;11.562;2022-11-20T13:14:19;5.57;;;1.30;;
1955;SDS011;978;48.314;11.562;2022-11-20T13:16:56;5.40;;;1.50;;
1955;SDS011;978;48.314;11.562;2022-11-20T13:19:26;6.23;;;1.83;;
1955;SDS011;978;48.314;11.562;2022-11-20T13:21:54;5.10;;;0.80;;
1955;SDS011;978;48.314;11.562;2022-11-20T13:24:22;6.50;;;1.93;;
1955;SDS011;978;48.314;11.562;2022-11-20T13:27:03;7.60;;;2.30;;
1955;SDS011;978;48.314;11.562;2022-11-20T13:29:46;6.90;;;1.10;;
1955;SDS011;978;48.314;11.562;2022-11-20T13:32:25;8.43;;;1.90;;
1955;SDS011;978;48.314;11.562;2022-11-20T13:34:57;7.53;;;1.43;;
1955;SDS011;978;48.314;11.562;2022-11-20T13:37:26;8.00;;;1.87;;
1955;SDS011;978;48.314;11.562;2022-11-20T13:40:04;7.80;;;1.37;;
1955;SDS011;978;48.314;11.562;2022-11-20T13:42:54;8.50;;;1.67;;
1955;SDS011;978;48.314;11.562;2022-11-20T13:45:23;10.47;;;2.43;;
1955;SDS011;978;48.314;11.562;2022-11-20T13:47:52;9.60;;;2.13;;
1955;SDS011;978;48.314;11.562;2022-11-20T13:50:21;13.53;;;2.53;;
1955;SDS011;978;48.314;11.562;2022-11-20T13:53:12;11.17;;;2.80;;
1955;SDS011;978;48.314;11.562;2022-11-20T13:55:49;10.60;;;2.70;;
1955;SDS011;978;48.314;11.562;2022-11-20T13:58:25;11.97;;;3.20;;
1955;SDS011;978;48.314;11.562;2022-11-20T14:01:07;15.37;;;3.17;;
1955;SDS011;978;48.314;11.562;2022-11-20T14:03:36;12.43;;;3.50;;
1955;SDS011;978;48.314;11.562;2022-11-20T14:06:05;15.40;;;4.97;;
1955;SDS011;978;48.314;11.562;2022-11-20T14:08:39;14.40;;;4.23;;
1955;SDS011;978;48.314;11.562;2022-11-20T14:11:12;13.73;;;4.03;;
1955;SDS011;978;48.314;11.562;2022-11-20T14:13:52;14.20;;;4.57;;
1955;SDS011;978;48.314;11.562;2022-11-20T14:16:21;14.40;;;4.80;;
1955;SDS011;978;48.314;11.562;2022-11-20T14:18:48;9.63;;;1.97;;
1955;SDS011;978;48.314;11.562;2022-11-20T14:21:21;9.73;;;3.17;;
1955;SDS011;978;48.314;11.562;2022-11-20T14:23:49;7.57;;;1.30;;
1955;SDS011;978;48.314;11.562;2022-11-20T14:26:28;8.20;;;1.83;;
1955;SDS011;978;48.314;11.562;2022-11-20T14:28:56;10.57;;;1.77;;
1955;SDS011;978;48.314;11.562;2022-11-20T14:31:24;13.93;;;2.57;;
1955;SDS011;978;48.314;11.562;2022-11-20T14:33:52;10.33;;;2.27;;
1955;SDS011;978;48.314;11.562;2022-11-20T14:36:20;9.20;;;1.80;;
1955;SDS011;978;48.314;11.562;2022-11-20T14:38:49;8.90;;;1.63;;
1955;SDS011;978;48.314;11.562;2022-11-20T14:41:17;8.87;;;1.53;;
1955;SDS011;978;48.314;11.562;2022-11-20T14:43:45;11.10;;;2.67;;
1955;SDS011;978;48.314;11.562;2022-11-20T14:46:17;11.10;;;2.00;;
1955;SDS011;978;48.314;11.562;2022-11-20T14:48:45;10.13;;;2.33;;
1955;SDS011;978;48.314;11.562;2022-11-20T14:51:23;9.30;;;1.53;;
1955;SDS011;978;48.314;11.562;2022-11-20T14:53:52;10.00;;;2.60;;
1955;SDS011;978;48.314;11.562;2022-11-20T14:56:21;10.43;;;2.33;;
1955;SDS011;978;48.314;11.562;2022-11-20T14:58:55;10.70;;;2.27;;
1955;SDS011;978;48.314;11.562;2022-11-20T15:01:26;9.20;;;2.43;;
1955;SDS011;978;48.314;11.562;2022-11-20T15:03:59;7.50;;;0.90;;
1955;SDS011;978;48.314;11.562;2022-11-20T15:06:28;9.40;;;1.87;;
1955;SDS011;978;48.314;11.562;2022-11-20T15:08:56;11.33;;;2.50;;
1955;SDS011;978;48.314;11.562;2022-11-20T15:11:25;8.70;;;1.37;;
1955;SDS011;978;48.314;11.562;2022-11-20T15:13:56;10.70;;;2.23;;
1955;SDS011;978;48.314;11.562;2022-11-20T15:16:23;9.83;;;1.83;;
1955;SDS011;978;48.314;11.562;2022-11-20T15:18:52;10.37;;;2.10;;
1955;SDS011;978;48.314;11.562;2022-11-20T15:21:20;10.70;;;2.33;;
1955;SDS011;978;48.314;11.562;2022-11-20T15:23:47;10.67;;;1.93;;
1955;SDS011;978;48.314;11.562;2022-11-20T15:26:17;12.37;;;1.57;;
1955;SDS011;978;48.314;11.562;2022-11-20T15:28:48;11.40;;;3.13;;